Itainopolis, Brazil
Current Conditions -  °F | °C
As of 6:00 PM on Friday 24 Oct 2014 (Local Time) from SBPL Reporting Station
Few Clouds Few Clouds  
Wind Chill: 90°   Ceiling: Unl
Heat Index: 90°   Visibility: 6mi
Dew Point: 63°   Wind: 7mph
Humidity: 40%   Direction: 140°SE
Pressure: 29.88"   Gusts: NA
Location:  7.45°S, 41.47°W
Report Text: SBPL 242100Z 14006KT 9999 FEW020 32/17 Q1012
Loading
Personal Weather Stations






























Interactive Weather Map
Tropical Storm Tracking
New forecast layout! Learn more

10-Day Weather Forecast

Advertisements
Track Severe Weather on mobile